Rehoboth, Massachusetts
Current Conditions -  °F | °C
As of 4:00 AM on Friday 24 Oct 2014 (Local Time) from KPVD Reporting Station
Overcast Overcast  
Wind Chill: 50°   Ceiling: 1600
Heat Index: 50°   Visibility: 10mi
Dew Point: 47°   Wind: 12mph
Humidity: 89%   Direction: 340°NNW
Pressure: 29.66"   Gusts: NA
Location:  41.84°N, 71.25°W
Report Text: KPVD 240800Z 34010KT 10SM OVC016 10/08 A2966 RMK AO2 T01000083
Loading
Personal Weather Stations






























Interactive Weather Map
Tropical Storm Tracking
New forecast layout! Learn more

10-Day Weather Forecast

Advertisements
Track Severe Weather on mobile